Wakayama, Japan
Current Conditions -  °F | °C
As of 7:00 AM on Sunday 21 Dec 2014 (Local Time) from RJBB Reporting Station
Few Clouds Few Clouds  
Wind Chill: 38°   Ceiling: Unl
Heat Index: 45°   Visibility: 6mi
Dew Point: 32°   Wind: 14mph
Humidity: 61%   Direction: 290°WNW
Pressure: 30.03"   Gusts: NA
Location:  34.22°N, 135.17°E
Report Text: RJBB 202200Z 29012KT 9999 FEW020 07/00 Q1017 NOSIG
Loading
Personal Weather Stations






























Interactive Weather Map New forecast layout! Learn more

10-Day Weather Forecast

Advertisements
Track Severe Weather on mobile